sensor_id;sensor_type;location;lat;lon;timestamp;P1;durP1;ratioP1;P2;durP2;ratioP2
16760;SDS011;8498;52.516;13.790;2023-05-08T00:00:04;6.30;;;4.40;;
16760;SDS011;8498;52.516;13.790;2023-05-08T00:05:27;7.60;;;4.93;;
16760;SDS011;8498;52.516;13.790;2023-05-08T00:10:49;4.97;;;4.47;;
16760;SDS011;8498;52.516;13.790;2023-05-08T00:16:12;5.87;;;4.47;;
16760;SDS011;8498;52.516;13.790;2023-05-08T00:21:34;8.33;;;4.97;;
16760;SDS011;8498;52.516;13.790;2023-05-08T00:26:57;7.33;;;4.10;;
16760;SDS011;8498;52.516;13.790;2023-05-08T00:32:19;4.93;;;4.27;;
16760;SDS011;8498;52.516;13.790;2023-05-08T00:37:42;6.07;;;4.23;;
16760;SDS011;8498;52.516;13.790;2023-05-08T00:43:05;6.10;;;4.00;;
16760;SDS011;8498;52.516;13.790;2023-05-08T00:48:29;15.00;;;4.40;;
16760;SDS011;8498;52.516;13.790;2023-05-08T00:53:53;5.87;;;4.10;;
16760;SDS011;8498;52.516;13.790;2023-05-08T00:59:15;5.83;;;4.60;;
16760;SDS011;8498;52.516;13.790;2023-05-08T01:04:41;6.27;;;4.23;;
16760;SDS011;8498;52.516;13.790;2023-05-08T01:10:05;8.13;;;4.40;;
16760;SDS011;8498;52.516;13.790;2023-05-08T01:15:29;5.83;;;4.17;;
16760;SDS011;8498;52.516;13.790;2023-05-08T01:21:16;6.67;;;4.57;;
16760;SDS011;8498;52.516;13.790;2023-05-08T01:32:38;6.40;;;4.10;;
16760;SDS011;8498;52.516;13.790;2023-05-08T01:38:26;5.83;;;4.40;;
16760;SDS011;8498;52.516;13.790;2023-05-08T01:44:14;8.30;;;4.20;;
16760;SDS011;8498;52.516;13.790;2023-05-08T01:55:04;7.27;;;4.40;;
16760;SDS011;8498;52.516;13.790;2023-05-08T02:00:32;6.43;;;4.43;;
16760;SDS011;8498;52.516;13.790;2023-05-08T02:05:55;8.53;;;4.63;;
16760;SDS011;8498;52.516;13.790;2023-05-08T02:11:20;5.13;;;4.23;;
16760;SDS011;8498;52.516;13.790;2023-05-08T02:16:46;8.10;;;4.57;;
16760;SDS011;8498;52.516;13.790;2023-05-08T02:22:09;9.00;;;4.73;;
16760;SDS011;8498;52.516;13.790;2023-05-08T02:27:33;5.43;;;4.50;;
16760;SDS011;8498;52.516;13.790;2023-05-08T02:32:57;5.77;;;4.63;;
16760;SDS011;8498;52.516;13.790;2023-05-08T02:38:22;8.50;;;5.17;;
16760;SDS011;8498;52.516;13.790;2023-05-08T02:43:47;8.50;;;4.93;;
16760;SDS011;8498;52.516;13.790;2023-05-08T02:49:30;7.33;;;4.77;;
16760;SDS011;8498;52.516;13.790;2023-05-08T02:55:01;6.97;;;5.07;;
16760;SDS011;8498;52.516;13.790;2023-05-08T03:00:34;7.80;;;4.83;;
16760;SDS011;8498;52.516;13.790;2023-05-08T03:06:12;7.27;;;4.67;;
16760;SDS011;8498;52.516;13.790;2023-05-08T03:11:40;7.93;;;4.83;;
16760;SDS011;8498;52.516;13.790;2023-05-08T03:17:05;6.37;;;4.93;;
16760;SDS011;8498;52.516;13.790;2023-05-08T03:22:30;11.30;;;5.30;;
16760;SDS011;8498;52.516;13.790;2023-05-08T03:27:56;7.03;;;5.00;;
16760;SDS011;8498;52.516;13.790;2023-05-08T03:33:20;9.23;;;5.90;;
16760;SDS011;8498;52.516;13.790;2023-05-08T03:38:44;7.93;;;5.73;;
16760;SDS011;8498;52.516;13.790;2023-05-08T03:44:07;9.90;;;5.77;;
16760;SDS011;8498;52.516;13.790;2023-05-08T03:49:30;9.63;;;6.07;;
16760;SDS011;8498;52.516;13.790;2023-05-08T03:54:54;9.17;;;5.87;;
16760;SDS011;8498;52.516;13.790;2023-05-08T04:00:36;8.03;;;5.40;;
16760;SDS011;8498;52.516;13.790;2023-05-08T04:06:14;10.27;;;5.37;;
16760;SDS011;8498;52.516;13.790;2023-05-08T04:17:35;9.50;;;5.30;;
16760;SDS011;8498;52.516;13.790;2023-05-08T04:23:04;7.87;;;5.57;;
16760;SDS011;8498;52.516;13.790;2023-05-08T04:28:29;9.60;;;5.50;;
16760;SDS011;8498;52.516;13.790;2023-05-08T04:33:53;8.30;;;5.40;;
16760;SDS011;8498;52.516;13.790;2023-05-08T04:39:16;7.03;;;5.03;;
16760;SDS011;8498;52.516;13.790;2023-05-08T04:44:39;8.20;;;5.47;;
16760;SDS011;8498;52.516;13.790;2023-05-08T04:50:02;10.60;;;5.60;;
16760;SDS011;8498;52.516;13.790;2023-05-08T04:55:29;8.90;;;5.27;;
16760;SDS011;8498;52.516;13.790;2023-05-08T05:00:51;8.07;;;4.80;;
16760;SDS011;8498;52.516;13.790;2023-05-08T05:06:15;9.77;;;5.77;;
16760;SDS011;8498;52.516;13.790;2023-05-08T05:11:38;10.63;;;5.83;;
16760;SDS011;8498;52.516;13.790;2023-05-08T05:17:01;8.13;;;5.67;;
16760;SDS011;8498;52.516;13.790;2023-05-08T05:22:24;11.17;;;5.40;;
16760;SDS011;8498;52.516;13.790;2023-05-08T05:27:47;9.67;;;5.00;;
16760;SDS011;8498;52.516;13.790;2023-05-08T05:33:09;9.80;;;5.77;;
16760;SDS011;8498;52.516;13.790;2023-05-08T05:38:32;7.33;;;5.03;;
16760;SDS011;8498;52.516;13.790;2023-05-08T05:43:54;8.50;;;5.13;;
16760;SDS011;8498;52.516;13.790;2023-05-08T05:49:17;6.90;;;4.23;;
16760;SDS011;8498;52.516;13.790;2023-05-08T05:54:39;7.40;;;4.60;;
16760;SDS011;8498;52.516;13.790;2023-05-08T06:00:06;8.73;;;5.20;;
16760;SDS011;8498;52.516;13.790;2023-05-08T06:05:35;9.03;;;4.50;;
16760;SDS011;8498;52.516;13.790;2023-05-08T06:10:58;8.40;;;4.40;;
16760;SDS011;8498;52.516;13.790;2023-05-08T06:16:21;8.03;;;4.87;;
16760;SDS011;8498;52.516;13.790;2023-05-08T06:21:44;8.57;;;3.93;;
16760;SDS011;8498;52.516;13.790;2023-05-08T06:27:06;6.07;;;4.40;;
16760;SDS011;8498;52.516;13.790;2023-05-08T06:32:29;6.83;;;4.37;;
16760;SDS011;8498;52.516;13.790;2023-05-08T06:37:52;6.00;;;4.50;;
16760;SDS011;8498;52.516;13.790;2023-05-08T06:43:14;6.77;;;4.30;;
16760;SDS011;8498;52.516;13.790;2023-05-08T06:48:38;9.80;;;4.53;;
16760;SDS011;8498;52.516;13.790;2023-05-08T06:54:00;7.73;;;4.23;;
16760;SDS011;8498;52.516;13.790;2023-05-08T06:59:23;6.87;;;4.33;;
16760;SDS011;8498;52.516;13.790;2023-05-08T07:04:45;5.80;;;4.30;;
16760;SDS011;8498;52.516;13.790;2023-05-08T07:10:08;5.03;;;3.07;;
16760;SDS011;8498;52.516;13.790;2023-05-08T07:15:31;3.33;;;2.90;;
16760;SDS011;8498;52.516;13.790;2023-05-08T07:20:54;4.00;;;3.00;;
16760;SDS011;8498;52.516;13.790;2023-05-08T07:26:16;5.90;;;2.70;;
16760;SDS011;8498;52.516;13.790;2023-05-08T07:31:39;4.40;;;2.50;;
16760;SDS011;8498;52.516;13.790;2023-05-08T07:37:03;4.70;;;3.00;;
16760;SDS011;8498;52.516;13.790;2023-05-08T07:42:25;2.80;;;2.53;;
16760;SDS011;8498;52.516;13.790;2023-05-08T07:47:48;4.07;;;2.30;;
16760;SDS011;8498;52.516;13.790;2023-05-08T07:53:11;6.70;;;2.60;;
16760;SDS011;8498;52.516;13.790;2023-05-08T07:58:33;4.17;;;2.80;;
16760;SDS011;8498;52.516;13.790;2023-05-08T08:03:56;5.50;;;2.97;;
16760;SDS011;8498;52.516;13.790;2023-05-08T08:09:18;3.13;;;2.40;;
16760;SDS011;8498;52.516;13.790;2023-05-08T08:14:41;3.07;;;2.63;;
16760;SDS011;8498;52.516;13.790;2023-05-08T08:20:03;2.93;;;2.63;;
16760;SDS011;8498;52.516;13.790;2023-05-08T08:25:26;5.77;;;3.17;;
16760;SDS011;8498;52.516;13.790;2023-05-08T08:30:49;4.33;;;2.60;;
16760;SDS011;8498;52.516;13.790;2023-05-08T08:36:12;4.30;;;2.47;;
16760;SDS011;8498;52.516;13.790;2023-05-08T08:41:37;3.97;;;2.13;;
16760;SDS011;8498;52.516;13.790;2023-05-08T08:47:01;2.97;;;2.60;;
16760;SDS011;8498;52.516;13.790;2023-05-08T08:52:40;4.13;;;2.40;;
16760;SDS011;8498;52.516;13.790;2023-05-08T09:03:59;3.10;;;2.27;;
16760;SDS011;8498;52.516;13.790;2023-05-08T09:09:22;6.10;;;2.37;;
16760;SDS011;8498;52.516;13.790;2023-05-08T09:14:45;4.07;;;2.47;;
16760;SDS011;8498;52.516;13.790;2023-05-08T09:20:08;2.80;;;2.40;;
16760;SDS011;8498;52.516;13.790;2023-05-08T09:25:43;2.77;;;2.23;;
16760;SDS011;8498;52.516;13.790;2023-05-08T09:31:07;2.93;;;2.63;;
16760;SDS011;8498;52.516;13.790;2023-05-08T09:36:29;2.57;;;2.10;;
16760;SDS011;8498;52.516;13.790;2023-05-08T09:47:23;3.43;;;2.20;;
16760;SDS011;8498;52.516;13.790;2023-05-08T09:52:46;5.67;;;2.20;;
16760;SDS011;8498;52.516;13.790;2023-05-08T09:58:10;2.85;;;2.05;;
16760;SDS011;8498;52.516;13.790;2023-05-08T10:03:48;2.13;;;1.92;;
16760;SDS011;8498;52.516;13.790;2023-05-08T10:09:12;2.50;;;2.08;;
16760;SDS011;8498;52.516;13.790;2023-05-08T10:14:35;2.28;;;1.95;;
16760;SDS011;8498;52.516;13.790;2023-05-08T10:19:58;2.47;;;2.00;;
16760;SDS011;8498;52.516;13.790;2023-05-08T10:25:29;2.53;;;2.13;;
16760;SDS011;8498;52.516;13.790;2023-05-08T10:30:54;3.88;;;2.67;;
16760;SDS011;8498;52.516;13.790;2023-05-08T10:36:22;3.67;;;1.85;;
16760;SDS011;8498;52.516;13.790;2023-05-08T10:41:45;2.00;;;1.90;;
16760;SDS011;8498;52.516;13.790;2023-05-08T10:52:43;4.43;;;2.13;;
16760;SDS011;8498;52.516;13.790;2023-05-08T10:58:14;2.58;;;2.38;;
16760;SDS011;8498;52.516;13.790;2023-05-08T11:03:50;2.30;;;2.10;;
16760;SDS011;8498;52.516;13.790;2023-05-08T11:14:43;2.40;;;2.20;;
16760;SDS011;8498;52.516;13.790;2023-05-08T11:20:14;5.05;;;2.08;;
16760;SDS011;8498;52.516;13.790;2023-05-08T11:25:40;3.83;;;2.08;;
16760;SDS011;8498;52.516;13.790;2023-05-08T11:31:07;3.15;;;2.10;;
16760;SDS011;8498;52.516;13.790;2023-05-08T11:36:29;3.55;;;2.28;;
16760;SDS011;8498;52.516;13.790;2023-05-08T11:41:53;2.20;;;2.00;;
16760;SDS011;8498;52.516;13.790;2023-05-08T11:47:16;2.40;;;2.20;;
16760;SDS011;8498;52.516;13.790;2023-05-08T11:52:40;4.43;;;2.03;;
16760;SDS011;8498;52.516;13.790;2023-05-08T11:58:13;2.25;;;1.90;;
16760;SDS011;8498;52.516;13.790;2023-05-08T12:03:37;4.03;;;2.10;;
16760;SDS011;8498;52.516;13.790;2023-05-08T12:08:59;2.13;;;1.92;;
16760;SDS011;8498;52.516;13.790;2023-05-08T12:14:25;3.92;;;3.28;;
16760;SDS011;8498;52.516;13.790;2023-05-08T12:19:50;2.38;;;2.15;;
16760;SDS011;8498;52.516;13.790;2023-05-08T12:25:16;4.68;;;2.00;;
16760;SDS011;8498;52.516;13.790;2023-05-08T12:30:44;2.70;;;1.73;;
16760;SDS011;8498;52.516;13.790;2023-05-08T12:36:07;2.97;;;1.88;;
16760;SDS011;8498;52.516;13.790;2023-05-08T12:41:29;3.88;;;1.88;;
16760;SDS011;8498;52.516;13.790;2023-05-08T12:46:56;4.28;;;1.67;;
16760;SDS011;8498;52.516;13.790;2023-05-08T12:52:18;2.38;;;1.73;;
16760;SDS011;8498;52.516;13.790;2023-05-08T12:57:41;3.80;;;1.80;;
16760;SDS011;8498;52.516;13.790;2023-05-08T13:03:04;1.90;;;1.80;;
16760;SDS011;8498;52.516;13.790;2023-05-08T13:08:28;2.47;;;1.95;;
16760;SDS011;8498;52.516;13.790;2023-05-08T13:13:52;4.95;;;2.05;;
16760;SDS011;8498;52.516;13.790;2023-05-08T13:19:14;5.05;;;2.05;;
16760;SDS011;8498;52.516;13.790;2023-05-08T13:24:37;6.07;;;1.80;;
16760;SDS011;8498;52.516;13.790;2023-05-08T13:29:59;6.00;;;2.03;;
16760;SDS011;8498;52.516;13.790;2023-05-08T13:35:21;2.00;;;1.90;;
16760;SDS011;8498;52.516;13.790;2023-05-08T13:40:46;5.65;;;2.03;;
16760;SDS011;8498;52.516;13.790;2023-05-08T13:46:08;2.88;;;1.80;;
16760;SDS011;8498;52.516;13.790;2023-05-08T13:51:32;5.50;;;2.00;;
16760;SDS011;8498;52.516;13.790;2023-05-08T13:56:55;3.20;;;2.13;;
16760;SDS011;8498;52.516;13.790;2023-05-08T14:02:17;3.45;;;1.77;;
16760;SDS011;8498;52.516;13.790;2023-05-08T14:07:40;2.05;;;1.92;;
16760;SDS011;8498;52.516;13.790;2023-05-08T14:13:03;2.95;;;2.00;;
16760;SDS011;8498;52.516;13.790;2023-05-08T14:18:26;5.93;;;2.30;;
16760;SDS011;8498;52.516;13.790;2023-05-08T14:23:49;2.00;;;1.90;;
16760;SDS011;8498;52.516;13.790;2023-05-08T14:29:11;4.93;;;2.10;;
16760;SDS011;8498;52.516;13.790;2023-05-08T14:34:34;2.78;;;2.15;;
16760;SDS011;8498;52.516;13.790;2023-05-08T14:39:57;3.28;;;1.92;;
16760;SDS011;8498;52.516;13.790;2023-05-08T14:45:20;3.22;;;2.40;;
16760;SDS011;8498;52.516;13.790;2023-05-08T14:50:44;2.40;;;2.25;;
16760;SDS011;8498;52.516;13.790;2023-05-08T14:56:07;3.58;;;2.50;;
16760;SDS011;8498;52.516;13.790;2023-05-08T15:01:29;2.35;;;2.20;;
16760;SDS011;8498;52.516;13.790;2023-05-08T15:06:52;2.75;;;2.08;;
16760;SDS011;8498;52.516;13.790;2023-05-08T15:12:15;2.88;;;1.90;;
16760;SDS011;8498;52.516;13.790;2023-05-08T15:17:37;3.03;;;2.20;;
16760;SDS011;8498;52.516;13.790;2023-05-08T15:23:02;5.47;;;2.95;;
16760;SDS011;8498;52.516;13.790;2023-05-08T15:28:24;2.40;;;2.20;;
16760;SDS011;8498;52.516;13.790;2023-05-08T15:33:47;3.13;;;2.20;;
16760;SDS011;8498;52.516;13.790;2023-05-08T15:39:09;3.13;;;2.08;;
16760;SDS011;8498;52.516;13.790;2023-05-08T15:44:32;6.43;;;2.70;;
16760;SDS011;8498;52.516;13.790;2023-05-08T15:50:14;2.60;;;2.40;;
16760;SDS011;8498;52.516;13.790;2023-05-08T15:55:37;2.38;;;2.17;;
16760;SDS011;8498;52.516;13.790;2023-05-08T16:01:01;3.15;;;2.50;;
16760;SDS011;8498;52.516;13.790;2023-05-08T16:06:25;4.40;;;2.65;;
16760;SDS011;8498;52.516;13.790;2023-05-08T16:11:48;4.53;;;2.22;;
16760;SDS011;8498;52.516;13.790;2023-05-08T16:17:10;2.28;;;2.08;;
16760;SDS011;8498;52.516;13.790;2023-05-08T16:22:32;5.78;;;3.60;;
16760;SDS011;8498;52.516;13.790;2023-05-08T16:27:55;2.40;;;2.20;;
16760;SDS011;8498;52.516;13.790;2023-05-08T16:33:18;7.70;;;2.47;;
16760;SDS011;8498;52.516;13.790;2023-05-08T16:38:40;5.22;;;2.55;;
16760;SDS011;8498;52.516;13.790;2023-05-08T16:44:03;3.50;;;2.00;;
16760;SDS011;8498;52.516;13.790;2023-05-08T16:49:25;3.20;;;2.40;;
16760;SDS011;8498;52.516;13.790;2023-05-08T16:54:47;4.93;;;2.58;;
16760;SDS011;8498;52.516;13.790;2023-05-08T17:00:10;2.80;;;2.38;;
16760;SDS011;8498;52.516;13.790;2023-05-08T17:05:32;5.32;;;2.53;;
16760;SDS011;8498;52.516;13.790;2023-05-08T17:10:58;2.97;;;2.25;;
16760;SDS011;8498;52.516;13.790;2023-05-08T17:16:21;3.65;;;2.35;;
16760;SDS011;8498;52.516;13.790;2023-05-08T17:21:44;2.55;;;1.80;;
16760;SDS011;8498;52.516;13.790;2023-05-08T17:27:06;1.98;;;1.85;;
16760;SDS011;8498;52.516;13.790;2023-05-08T17:32:29;2.85;;;2.20;;
16760;SDS011;8498;52.516;13.790;2023-05-08T17:37:52;5.55;;;2.25;;
16760;SDS011;8498;52.516;13.790;2023-05-08T17:43:14;3.60;;;2.50;;
16760;SDS011;8498;52.516;13.790;2023-05-08T17:48:39;3.28;;;2.20;;
16760;SDS011;8498;52.516;13.790;2023-05-08T17:54:02;2.20;;;2.00;;
16760;SDS011;8498;52.516;13.790;2023-05-08T17:59:24;4.22;;;2.45;;
16760;SDS011;8498;52.516;13.790;2023-05-08T18:04:47;3.95;;;2.42;;
16760;SDS011;8498;52.516;13.790;2023-05-08T18:10:09;5.15;;;2.13;;
16760;SDS011;8498;52.516;13.790;2023-05-08T18:15:32;2.78;;;2.55;;
16760;SDS011;8498;52.516;13.790;2023-05-08T18:20:57;4.60;;;2.40;;
16760;SDS011;8498;52.516;13.790;2023-05-08T18:26:19;3.13;;;2.47;;
16760;SDS011;8498;52.516;13.790;2023-05-08T18:31:42;2.47;;;2.00;;
16760;SDS011;8498;52.516;13.790;2023-05-08T18:37:04;2.83;;;2.43;;
16760;SDS011;8498;52.516;13.790;2023-05-08T18:42:27;5.50;;;2.50;;
16760;SDS011;8498;52.516;13.790;2023-05-08T18:47:49;2.60;;;2.37;;
16760;SDS011;8498;52.516;13.790;2023-05-08T18:53:13;2.77;;;2.57;;
16760;SDS011;8498;52.516;13.790;2023-05-08T18:58:36;2.50;;;2.30;;
16760;SDS011;8498;52.516;13.790;2023-05-08T19:03:58;5.00;;;2.50;;
16760;SDS011;8498;52.516;13.790;2023-05-08T19:09:21;3.03;;;2.80;;
16760;SDS011;8498;52.516;13.790;2023-05-08T19:14:44;3.80;;;2.83;;
16760;SDS011;8498;52.516;13.790;2023-05-08T19:20:06;2.93;;;2.53;;
16760;SDS011;8498;52.516;13.790;2023-05-08T19:25:29;3.37;;;3.07;;
16760;SDS011;8498;52.516;13.790;2023-05-08T19:30:52;7.03;;;2.73;;
16760;SDS011;8498;52.516;13.790;2023-05-08T19:36:14;4.87;;;2.67;;
16760;SDS011;8498;52.516;13.790;2023-05-08T19:41:37;4.77;;;2.50;;
16760;SDS011;8498;52.516;13.790;2023-05-08T19:46:59;4.07;;;2.70;;
16760;SDS011;8498;52.516;13.790;2023-05-08T19:52:24;3.60;;;3.03;;
16760;SDS011;8498;52.516;13.790;2023-05-08T19:57:47;4.37;;;2.67;;
16760;SDS011;8498;52.516;13.790;2023-05-08T20:03:09;2.80;;;2.60;;
16760;SDS011;8498;52.516;13.790;2023-05-08T20:08:32;3.37;;;3.03;;
16760;SDS011;8498;52.516;13.790;2023-05-08T20:13:54;2.80;;;2.60;;
16760;SDS011;8498;52.516;13.790;2023-05-08T20:19:17;3.50;;;2.57;;
16760;SDS011;8498;52.516;13.790;2023-05-08T20:24:39;4.00;;;2.83;;
16760;SDS011;8498;52.516;13.790;2023-05-08T20:30:02;3.37;;;2.80;;
16760;SDS011;8498;52.516;13.790;2023-05-08T20:35:24;3.63;;;3.00;;
16760;SDS011;8498;52.516;13.790;2023-05-08T20:40:47;2.77;;;2.40;;
16760;SDS011;8498;52.516;13.790;2023-05-08T20:46:09;3.50;;;2.83;;
16760;SDS011;8498;52.516;13.790;2023-05-08T20:51:32;5.70;;;3.30;;
16760;SDS011;8498;52.516;13.790;2023-05-08T20:56:55;4.27;;;2.90;;
16760;SDS011;8498;52.516;13.790;2023-05-08T21:02:17;6.73;;;3.27;;
16760;SDS011;8498;52.516;13.790;2023-05-08T21:07:39;3.57;;;3.10;;
16760;SDS011;8498;52.516;13.790;2023-05-08T21:13:03;3.97;;;3.00;;
16760;SDS011;8498;52.516;13.790;2023-05-08T21:18:26;3.40;;;3.10;;
16760;SDS011;8498;52.516;13.790;2023-05-08T21:23:48;4.83;;;3.37;;
16760;SDS011;8498;52.516;13.790;2023-05-08T21:29:10;4.13;;;3.00;;
16760;SDS011;8498;52.516;13.790;2023-05-08T21:34:33;5.20;;;3.70;;
16760;SDS011;8498;52.516;13.790;2023-05-08T21:39:55;4.67;;;3.00;;
16760;SDS011;8498;52.516;13.790;2023-05-08T21:45:17;9.77;;;3.40;;
16760;SDS011;8498;52.516;13.790;2023-05-08T21:50:40;7.97;;;3.57;;
16760;SDS011;8498;52.516;13.790;2023-05-08T21:56:03;3.90;;;3.17;;
16760;SDS011;8498;52.516;13.790;2023-05-08T22:01:25;3.50;;;3.10;;
16760;SDS011;8498;52.516;13.790;2023-05-08T22:06:48;7.20;;;3.50;;
16760;SDS011;8498;52.516;13.790;2023-05-08T22:12:10;5.83;;;3.83;;
16760;SDS011;8498;52.516;13.790;2023-05-08T22:17:32;4.80;;;3.40;;
16760;SDS011;8498;52.516;13.790;2023-05-08T22:22:55;4.27;;;3.23;;
16760;SDS011;8498;52.516;13.790;2023-05-08T22:28:17;4.47;;;4.00;;
16760;SDS011;8498;52.516;13.790;2023-05-08T22:33:40;6.47;;;3.67;;
16760;SDS011;8498;52.516;13.790;2023-05-08T22:39:04;4.20;;;3.80;;
16760;SDS011;8498;52.516;13.790;2023-05-08T22:44:27;3.83;;;3.40;;
16760;SDS011;8498;52.516;13.790;2023-05-08T22:49:50;6.17;;;4.13;;
16760;SDS011;8498;52.516;13.790;2023-05-08T22:55:12;5.20;;;4.13;;
16760;SDS011;8498;52.516;13.790;2023-05-08T23:00:36;6.60;;;4.00;;
16760;SDS011;8498;52.516;13.790;2023-05-08T23:05:59;8.13;;;3.87;;
16760;SDS011;8498;52.516;13.790;2023-05-08T23:11:23;5.17;;;3.80;;
16760;SDS011;8498;52.516;13.790;2023-05-08T23:16:45;5.57;;;3.80;;
16760;SDS011;8498;52.516;13.790;2023-05-08T23:22:08;12.10;;;4.20;;
16760;SDS011;8498;52.516;13.790;2023-05-08T23:27:31;4.97;;;4.00;;
16760;SDS011;8498;52.516;13.790;2023-05-08T23:32:53;5.30;;;3.73;;
16760;SDS011;8498;52.516;13.790;2023-05-08T23:38:16;5.23;;;4.20;;
16760;SDS011;8498;52.516;13.790;2023-05-08T23:43:38;6.87;;;4.60;;
16760;SDS011;8498;52.516;13.790;2023-05-08T23:49:01;7.40;;;4.30;;
16760;SDS011;8498;52.516;13.790;2023-05-08T23:54:26;4.37;;;3.77;;
16760;SDS011;8498;52.516;13.790;2023-05-08T23:59:48;7.13;;;4.40;;
